createdAt,value
2023-03-04T00:00:48.251Z,-2.26
2023-03-04T00:03:15.713Z,-2.17
2023-03-04T00:05:42.380Z,-2.19
2023-03-04T00:08:09.133Z,-2.59
2023-03-04T00:10:35.781Z,-2.43
2023-03-04T00:13:02.405Z,-2.60
2023-03-04T00:15:29.143Z,-2.58
2023-03-04T00:17:56.220Z,-2.56
2023-03-04T00:20:22.813Z,-2.76
2023-03-04T00:22:49.422Z,-2.53
2023-03-04T00:25:16.178Z,-2.58
2023-03-04T00:27:42.681Z,-2.51
2023-03-04T00:30:09.995Z,-2.56
2023-03-04T00:32:36.675Z,-2.58
2023-03-04T00:35:04.456Z,-2.45
2023-03-04T00:37:31.085Z,-2.71
2023-03-04T00:39:57.866Z,-2.57
2023-03-04T00:42:24.817Z,-2.78
2023-03-04T00:44:52.129Z,-2.79
2023-03-04T00:47:18.995Z,-2.79
2023-03-04T00:49:45.550Z,-2.82
2023-03-04T00:52:12.174Z,-2.68
2023-03-04T00:54:38.737Z,-2.91
2023-03-04T00:57:05.353Z,-3.20
2023-03-04T00:59:32.108Z,-3.15
2023-03-04T01:02:00.089Z,-3.18
2023-03-04T01:04:26.866Z,-3.11
2023-03-04T01:06:53.738Z,-3.23
2023-03-04T01:09:20.398Z,-3.22
2023-03-04T01:11:47.020Z,-3.26
2023-03-04T01:14:13.672Z,-3.26
2023-03-04T01:16:40.304Z,-3.29
2023-03-04T01:19:07.033Z,-3.36
2023-03-04T01:21:33.670Z,-3.45
2023-03-04T01:24:00.522Z,-3.49
2023-03-04T01:26:27.120Z,-3.58
2023-03-04T01:28:53.765Z,-3.63
2023-03-04T01:31:20.402Z,-3.87
2023-03-04T01:33:46.973Z,-3.75
2023-03-04T01:36:13.525Z,-3.62
2023-03-04T01:38:40.305Z,-3.61
2023-03-04T01:41:08.005Z,-3.64
2023-03-04T01:43:36.634Z,-3.39
2023-03-04T01:46:03.645Z,-3.31
2023-03-04T01:48:38.987Z,-3.25
2023-03-04T01:51:10.821Z,-3.13
2023-03-04T01:53:37.614Z,-3.08
2023-03-04T01:56:34.366Z,-2.95
2023-03-04T01:59:20.063Z,-2.88
2023-03-04T02:01:54.470Z,-2.87
2023-03-04T02:04:26.137Z,-2.86
2023-03-04T02:06:53.055Z,-2.79
2023-03-04T02:09:21.340Z,-2.83
2023-03-04T02:11:49.746Z,-2.92
2023-03-04T02:14:19.433Z,-2.79
2023-03-04T02:16:47.080Z,-2.64
2023-03-04T02:19:51.279Z,-2.60
2023-03-04T02:22:18.063Z,-2.59
2023-03-04T02:25:01.881Z,-2.62
2023-03-04T02:27:28.800Z,-2.49
2023-03-04T02:29:55.461Z,-2.42
2023-03-04T02:32:22.268Z,-2.67
2023-03-04T02:34:50.810Z,-2.91
2023-03-04T02:37:19.207Z,-2.92
2023-03-04T02:39:48.480Z,-2.77
2023-03-04T02:42:15.944Z,-2.58
2023-03-04T02:44:46.461Z,-3.08
2023-03-04T02:47:17.789Z,-2.93
2023-03-04T02:49:44.868Z,-2.66
2023-03-04T02:52:19.409Z,-2.63
2023-03-04T02:54:46.303Z,-2.41
2023-03-04T02:57:14.900Z,-2.32
2023-03-04T02:59:44.462Z,-2.53
2023-03-04T03:02:16.408Z,-2.58
2023-03-04T03:04:43.046Z,-2.63
2023-03-04T03:07:13.707Z,-2.54
2023-03-04T03:09:41.128Z,-3.06
2023-03-04T03:12:07.837Z,-2.68
2023-03-04T03:14:34.556Z,-2.77
2023-03-04T03:17:03.475Z,-3.02
2023-03-04T03:19:31.507Z,-2.76
2023-03-04T03:22:00.540Z,-2.78
2023-03-04T03:24:27.226Z,-2.64
2023-03-04T03:26:53.851Z,-2.51
2023-03-04T03:29:20.472Z,-2.52
2023-03-04T03:31:47.049Z,-2.40
2023-03-04T03:34:13.793Z,-2.45
2023-03-04T03:36:41.721Z,-2.40
2023-03-04T03:39:08.341Z,-2.32
2023-03-04T03:41:34.946Z,-2.23
2023-03-04T03:44:01.907Z,-2.30
2023-03-04T03:46:29.845Z,-2.65
2023-03-04T03:48:56.502Z,-2.39
2023-03-04T03:51:23.171Z,-2.22
2023-03-04T03:53:49.793Z,-2.38
2023-03-04T03:56:16.390Z,-2.67
2023-03-04T03:58:42.973Z,-2.36
2023-03-04T04:01:09.661Z,-2.35
2023-03-04T04:03:36.629Z,-2.26
2023-03-04T04:06:03.409Z,-2.35
2023-03-04T04:08:30.026Z,-2.27
2023-03-04T04:10:56.606Z,-2.18
2023-03-04T04:13:23.303Z,-2.36
2023-03-04T04:15:54.304Z,-2.18
2023-03-04T04:18:20.896Z,-2.11
2023-03-04T04:20:47.544Z,-2.14
2023-03-04T04:23:14.075Z,-2.38
2023-03-04T04:25:43.600Z,-2.62
2023-03-04T04:28:10.358Z,-2.62
2023-03-04T04:30:37.057Z,-2.38
2023-03-04T04:33:04.799Z,-2.70
2023-03-04T04:35:36.564Z,-2.46
2023-03-04T04:38:03.280Z,-2.34
2023-03-04T04:40:29.895Z,-2.31
2023-03-04T04:42:57.054Z,-2.38
2023-03-04T04:45:27.424Z,-2.31
2023-03-04T04:47:57.310Z,-2.30
2023-03-04T04:50:25.128Z,-2.25
2023-03-04T04:52:51.773Z,-2.21
2023-03-04T04:55:18.493Z,-2.36
2023-03-04T04:57:45.052Z,-2.27
2023-03-04T05:00:12.542Z,-2.20
2023-03-04T05:02:39.607Z,-2.37
2023-03-04T05:05:07.446Z,-2.32
2023-03-04T05:07:34.301Z,-2.23
2023-03-04T05:10:01.064Z,-2.28
2023-03-04T05:12:27.814Z,-2.28
2023-03-04T05:14:54.408Z,-2.37
2023-03-04T05:17:20.978Z,-2.28
2023-03-04T05:19:47.575Z,-2.60
2023-03-04T05:22:14.080Z,-2.27
2023-03-04T05:24:40.636Z,-2.03
2023-03-04T05:27:07.148Z,-1.97
2023-03-04T05:29:33.782Z,-2.09
2023-03-04T05:32:00.343Z,-2.18
2023-03-04T05:34:26.863Z,-2.12
2023-03-04T05:36:53.417Z,-1.99
2023-03-04T05:39:20.115Z,-1.97
2023-03-04T05:41:46.674Z,-1.93
2023-03-04T05:44:13.324Z,-1.76
2023-03-04T05:46:40.002Z,-1.89
2023-03-04T05:49:06.636Z,-1.97
2023-03-04T05:51:33.192Z,-1.88
2023-03-04T05:53:59.729Z,-1.79
2023-03-04T05:56:26.315Z,-1.78
2023-03-04T05:58:52.886Z,-1.71
2023-03-04T06:01:19.442Z,-1.86
2023-03-04T06:03:48.544Z,-1.80
2023-03-04T06:06:15.401Z,-1.71
2023-03-04T06:08:42.015Z,-1.63
2023-03-04T06:11:08.799Z,-1.60
2023-03-04T06:13:36.579Z,-1.64
2023-03-04T06:16:03.379Z,-1.82
2023-03-04T06:18:30.105Z,-1.73
2023-03-04T06:21:01.481Z,-1.88
2023-03-04T06:23:28.990Z,-1.72
2023-03-04T06:25:57.913Z,-1.64
2023-03-04T06:28:24.965Z,-1.62
2023-03-04T06:30:53.092Z,-2.08
2023-03-04T06:33:19.900Z,-1.77
2023-03-04T06:35:46.551Z,-1.69
2023-03-04T06:38:13.294Z,-1.53
2023-03-04T06:40:40.152Z,-1.52
2023-03-04T06:43:06.880Z,-1.74
2023-03-04T06:45:33.372Z,-1.60
2023-03-04T06:47:59.883Z,-1.59
2023-03-04T06:50:26.582Z,-1.79
2023-03-04T06:52:53.276Z,-1.46
2023-03-04T06:55:29.191Z,-1.36
2023-03-04T06:57:55.916Z,-1.40
2023-03-04T07:00:24.133Z,-1.32
2023-03-04T07:02:53.367Z,-1.43
2023-03-04T07:05:21.311Z,-1.32
2023-03-04T07:07:49.461Z,-1.13
2023-03-04T07:10:19.767Z,-1.11
2023-03-04T07:12:46.310Z,-1.38
2023-03-04T07:15:13.171Z,-1.26
2023-03-04T07:17:39.748Z,-1.08
2023-03-04T07:20:06.832Z,-1.02
2023-03-04T07:22:33.418Z,-1.20
2023-03-04T07:24:59.951Z,-1.14
2023-03-04T07:27:26.662Z,-0.83
2023-03-04T07:29:53.217Z,-0.75
2023-03-04T07:32:19.984Z,-0.94
2023-03-04T07:34:46.666Z,-0.78
2023-03-04T07:37:13.292Z,-0.51
2023-03-04T07:39:39.894Z,-0.39
2023-03-04T07:42:06.438Z,-0.24
2023-03-04T07:44:39.366Z,-0.78
2023-03-04T07:47:05.995Z,-0.60
2023-03-04T07:49:36.795Z,-0.32
2023-03-04T07:52:05.134Z,-0.27
2023-03-04T07:54:32.422Z,-0.50
2023-03-04T07:56:59.028Z,-0.33
2023-03-04T08:02:35.867Z,-0.67
2023-03-04T08:05:10.380Z,-1.14
2023-03-04T08:07:37.136Z,-0.64
2023-03-04T08:10:04.626Z,-0.35
2023-03-04T08:12:31.252Z,-0.77
2023-03-04T08:14:57.818Z,-0.29
2023-03-04T08:17:24.498Z,-0.43
2023-03-04T08:19:51.221Z,-0.87
2023-03-04T08:22:17.905Z,-0.66
2023-03-04T08:24:44.442Z,-0.31
2023-03-04T08:27:11.073Z,-0.50
2023-03-04T08:29:37.779Z,-0.55
2023-03-04T08:32:04.661Z,-0.55
2023-03-04T08:34:31.530Z,-0.51
2023-03-04T08:36:58.185Z,-0.42
2023-03-04T08:39:24.742Z,-0.36
2023-03-04T08:41:51.361Z,-0.35
2023-03-04T08:44:18.286Z,-0.10
2023-03-04T08:46:44.895Z,0.05
2023-03-04T08:49:13.085Z,0.15
2023-03-04T08:51:40.040Z,-0.11
2023-03-04T08:54:07.077Z,0.16
2023-03-04T08:56:33.645Z,-0.29
2023-03-04T08:59:00.168Z,-0.22
2023-03-04T09:01:27.168Z,-0.02
2023-03-04T09:03:53.798Z,-0.21
2023-03-04T09:06:20.477Z,0.32
2023-03-04T09:08:47.054Z,0.49
2023-03-04T09:11:13.846Z,-0.12
2023-03-04T09:13:40.535Z,-0.20
2023-03-04T09:16:14.947Z,-0.24
2023-03-04T09:18:42.167Z,0.02
2023-03-04T09:21:09.530Z,0.32
2023-03-04T09:23:37.417Z,0.26
2023-03-04T09:26:27.196Z,0.20
2023-03-04T09:29:02.534Z,0.41
2023-03-04T09:31:29.817Z,0.56
2023-03-04T09:33:58.674Z,0.14
2023-03-04T09:36:26.616Z,-0.38
2023-03-04T09:38:53.221Z,0.03
2023-03-04T09:41:26.864Z,-0.08
2023-03-04T09:43:55.247Z,0.16
2023-03-04T09:46:33.935Z,0.34
2023-03-04T09:49:00.787Z,0.15
2023-03-04T09:51:54.421Z,0.14
2023-03-04T09:54:32.547Z,0.36
2023-03-04T09:57:34.621Z,0.72
2023-03-04T10:00:20.088Z,0.64
2023-03-04T10:03:05.082Z,-0.29
2023-03-04T10:05:34.329Z,0.32
2023-03-04T10:08:16.948Z,0.05
2023-03-04T10:10:45.091Z,0.26
2023-03-04T10:13:18.364Z,0.22
2023-03-04T10:15:51.237Z,0.45
2023-03-04T10:18:27.681Z,0.39
2023-03-04T10:21:00.587Z,-0.11
2023-03-04T10:23:29.847Z,-0.06
2023-03-04T10:25:57.848Z,0.35
2023-03-04T10:28:30.423Z,0.73
2023-03-04T10:31:09.431Z,0.91
2023-03-04T10:33:38.902Z,0.92
2023-03-04T10:36:16.771Z,0.61
2023-03-04T10:38:43.596Z,1.04
2023-03-04T10:41:18.361Z,0.90
2023-03-04T10:43:50.858Z,0.50
2023-03-04T10:46:17.651Z,0.96
2023-03-04T10:48:44.952Z,0.95
2023-03-04T10:51:22.416Z,1.04
2023-03-04T10:53:56.001Z,0.92
2023-03-04T10:56:32.822Z,1.59
2023-03-04T10:59:27.999Z,1.07
2023-03-04T11:01:54.900Z,1.14
2023-03-04T11:04:27.467Z,1.15
2023-03-04T11:06:54.406Z,0.43
2023-03-04T11:09:27.840Z,0.68
2023-03-04T11:12:02.089Z,1.19
2023-03-04T11:14:37.240Z,1.59
2023-03-04T11:17:19.057Z,0.77
2023-03-04T11:19:51.942Z,1.41
2023-03-04T11:22:33.834Z,1.74
2023-03-04T11:25:18.188Z,2.12
2023-03-04T11:27:57.774Z,1.41
2023-03-04T11:30:48.111Z,1.01
2023-03-04T11:33:24.023Z,1.72
2023-03-04T11:36:31.640Z,1.09
2023-03-04T11:38:59.622Z,0.03
2023-03-04T11:41:48.715Z,0.90
2023-03-04T11:44:21.142Z,0.59
2023-03-04T11:47:39.347Z,1.31
2023-03-04T11:50:50.847Z,1.88
2023-03-04T18:42:37.593Z,-0.14
2023-03-04T18:45:43.536Z,0.11
2023-03-04T18:48:10.221Z,0.24
2023-03-04T18:50:36.908Z,0.08
2023-03-04T18:53:03.942Z,0.08
2023-03-04T18:55:31.816Z,0.31
2023-03-04T18:58:01.316Z,0.38
2023-03-04T19:00:29.039Z,0.37
2023-03-04T19:03:08.467Z,0.36
2023-03-04T19:05:36.026Z,0.37
2023-03-04T19:08:02.817Z,0.41
2023-03-04T19:10:29.553Z,0.47
2023-03-04T19:12:59.774Z,0.32
2023-03-04T19:15:29.612Z,0.08
2023-03-04T19:17:56.328Z,-0.05
2023-03-04T19:20:23.171Z,0.22
2023-03-04T19:22:50.988Z,-0.10
2023-03-04T19:25:17.869Z,0.13
2023-03-04T19:27:44.596Z,-0.04
2023-03-04T19:30:11.778Z,0.11
2023-03-04T19:32:38.510Z,0.23
2023-03-04T19:35:05.645Z,0.20
2023-03-04T19:37:32.416Z,0.18
2023-03-04T19:39:59.092Z,-0.20
2023-03-04T19:42:25.695Z,-0.08
2023-03-04T19:44:52.265Z,-0.01
2023-03-04T19:47:18.932Z,-0.03
2023-03-04T19:49:45.689Z,0.06
2023-03-04T19:52:12.413Z,0.20
2023-03-04T19:54:39.429Z,0.13
2023-03-04T19:57:06.086Z,-0.03
2023-03-04T19:59:37.707Z,-0.15
2023-03-04T20:02:04.497Z,0.04
2023-03-04T20:04:31.566Z,0.15
2023-03-04T20:06:58.384Z,0.20
2023-03-04T20:09:25.068Z,0.10
2023-03-04T20:11:58.408Z,0.07
2023-03-04T20:14:31.612Z,0.08
2023-03-04T20:17:01.106Z,-0.04
2023-03-04T20:19:31.865Z,-0.07
2023-03-04T20:21:58.843Z,0.10
2023-03-04T20:24:26.723Z,0.30
2023-03-04T20:26:54.086Z,0.34
2023-03-04T20:29:20.961Z,0.48
2023-03-04T20:31:48.248Z,0.07
2023-03-04T20:34:20.093Z,0.24
2023-03-04T20:36:49.090Z,-0.25
2023-03-04T20:39:28.111Z,0.11
2023-03-04T20:41:58.029Z,0.05
2023-03-04T20:44:25.017Z,-0.13
2023-03-04T20:46:51.787Z,-0.31
2023-03-04T20:49:24.393Z,-0.30
2023-03-04T20:51:58.083Z,-0.27
2023-03-04T20:54:24.848Z,-0.27
2023-03-04T20:56:51.469Z,-0.56
2023-03-04T20:59:18.718Z,-0.65
2023-03-04T21:01:48.079Z,-0.66
2023-03-04T21:04:15.928Z,-0.58
2023-03-04T21:06:43.735Z,-0.34
2023-03-04T21:09:14.521Z,-0.46
2023-03-04T21:11:42.334Z,-0.81
2023-03-04T21:14:24.331Z,-0.61
2023-03-04T21:16:53.374Z,-0.47
2023-03-04T21:19:23.120Z,-0.29
2023-03-04T21:21:51.807Z,-0.21
2023-03-04T21:24:21.260Z,-0.21
2023-03-04T21:26:48.639Z,-0.50
2023-03-04T21:29:17.146Z,-0.40
2023-03-04T21:31:46.402Z,-0.24
2023-03-04T21:34:17.961Z,-0.45
2023-03-04T21:36:44.714Z,-0.41
2023-03-04T21:39:23.661Z,-0.24
2023-03-04T21:41:50.765Z,-0.61
2023-03-04T21:44:28.437Z,-0.90
2023-03-04T21:47:00.728Z,-0.46
2023-03-04T21:49:27.814Z,-0.56
2023-03-04T21:51:54.787Z,-0.39
2023-03-04T21:54:21.619Z,-0.24
2023-03-04T21:56:49.471Z,-0.17
2023-03-04T21:59:17.553Z,-0.41
2023-03-04T22:01:45.139Z,-0.71
2023-03-04T22:04:12.384Z,-0.36
2023-03-04T22:06:40.812Z,-0.55
2023-03-04T22:09:07.964Z,-0.60
2023-03-04T22:11:34.830Z,-0.59
2023-03-04T22:14:02.982Z,-0.52
2023-03-04T22:16:31.756Z,-0.47
2023-03-04T22:18:59.224Z,-0.98
2023-03-04T22:21:25.889Z,-0.66
2023-03-04T22:23:52.541Z,-0.66
2023-03-04T22:26:26.896Z,-0.48
2023-03-04T22:28:53.495Z,-0.29
2023-03-04T22:31:34.972Z,-0.27
2023-03-04T22:34:14.028Z,-0.23
2023-03-04T22:36:43.955Z,-0.25
2023-03-04T22:39:13.803Z,-0.83
2023-03-04T22:41:40.637Z,-0.86
2023-03-04T22:44:07.722Z,-0.46
2023-03-04T22:46:38.094Z,-0.33
2023-03-04T22:49:09.647Z,-0.28
2023-03-04T22:51:37.230Z,-0.26
2023-03-04T22:54:04.207Z,-0.21
2023-03-04T22:56:30.921Z,-0.15
2023-03-04T22:58:57.512Z,-0.19
2023-03-04T23:01:24.259Z,-0.90
2023-03-04T23:03:51.415Z,-0.39
2023-03-04T23:06:25.195Z,-0.77
2023-03-04T23:08:52.447Z,-0.51
2023-03-04T23:11:22.125Z,-0.79
2023-03-04T23:13:50.140Z,-0.55
2023-03-04T23:16:17.853Z,-0.43
2023-03-04T23:18:47.240Z,-0.37
2023-03-04T23:21:22.086Z,-0.30
2023-03-04T23:23:49.023Z,-0.28
2023-03-04T23:26:21.251Z,-0.26
2023-03-04T23:28:48.213Z,-0.52
2023-03-04T23:31:15.477Z,-0.44
2023-03-04T23:33:43.181Z,-0.84
2023-03-04T23:36:15.733Z,-1.05
2023-03-04T23:38:47.750Z,-0.79
2023-03-04T23:41:19.950Z,-0.70
2023-03-04T23:43:47.139Z,-0.51
2023-03-04T23:46:14.274Z,-0.91
2023-03-04T23:48:43.669Z,-0.95
2023-03-04T23:51:10.389Z,-0.54
2023-03-04T23:53:39.055Z,-0.50
2023-03-04T23:56:11.120Z,-0.34
2023-03-04T23:58:38.021Z,-0.37
